sensor_id;sensor_type;location;lat;lon;timestamp;P1;durP1;ratioP1;P2;durP2;ratioP2
57325;SDS011;43161;50.950;18.224;2023-05-29T00:01:07;8.90;;;2.70;;
57325;SDS011;43161;50.950;18.224;2023-05-29T00:03:34;10.20;;;2.60;;
57325;SDS011;43161;50.950;18.224;2023-05-29T00:06:02;11.20;;;3.20;;
57325;SDS011;43161;50.950;18.224;2023-05-29T00:08:28;12.70;;;3.30;;
57325;SDS011;43161;50.950;18.224;2023-05-29T00:10:53;11.30;;;3.50;;
57325;SDS011;43161;50.950;18.224;2023-05-29T00:13:19;11.20;;;3.10;;
57325;SDS011;43161;50.950;18.224;2023-05-29T00:15:46;12.40;;;3.10;;
57325;SDS011;43161;50.950;18.224;2023-05-29T00:18:12;11.40;;;3.70;;
57325;SDS011;43161;50.950;18.224;2023-05-29T00:20:38;10.30;;;3.10;;
57325;SDS011;43161;50.950;18.224;2023-05-29T00:23:03;9.50;;;3.00;;
57325;SDS011;43161;50.950;18.224;2023-05-29T00:25:31;9.30;;;3.20;;
57325;SDS011;43161;50.950;18.224;2023-05-29T00:27:57;11.40;;;3.50;;
57325;SDS011;43161;50.950;18.224;2023-05-29T00:30:23;12.60;;;3.40;;
57325;SDS011;43161;50.950;18.224;2023-05-29T00:32:48;11.70;;;3.40;;
57325;SDS011;43161;50.950;18.224;2023-05-29T00:35:15;11.90;;;3.40;;
57325;SDS011;43161;50.950;18.224;2023-05-29T00:37:40;11.70;;;3.30;;
57325;SDS011;43161;50.950;18.224;2023-05-29T00:40:06;14.40;;;3.60;;
57325;SDS011;43161;50.950;18.224;2023-05-29T00:42:32;9.80;;;3.00;;
57325;SDS011;43161;50.950;18.224;2023-05-29T00:44:58;11.80;;;3.30;;
57325;SDS011;43161;50.950;18.224;2023-05-29T00:47:23;11.00;;;3.90;;
57325;SDS011;43161;50.950;18.224;2023-05-29T00:49:49;13.30;;;3.50;;
57325;SDS011;43161;50.950;18.224;2023-05-29T00:52:16;11.30;;;3.50;;
57325;SDS011;43161;50.950;18.224;2023-05-29T00:54:43;11.50;;;3.80;;
57325;SDS011;43161;50.950;18.224;2023-05-29T00:57:10;9.60;;;3.30;;
57325;SDS011;43161;50.950;18.224;2023-05-29T00:59:36;11.30;;;3.30;;
57325;SDS011;43161;50.950;18.224;2023-05-29T01:02:02;12.40;;;3.60;;
57325;SDS011;43161;50.950;18.224;2023-05-29T01:04:28;11.00;;;3.40;;
57325;SDS011;43161;50.950;18.224;2023-05-29T01:06:54;9.60;;;3.50;;
57325;SDS011;43161;50.950;18.224;2023-05-29T01:09:21;11.00;;;3.60;;
57325;SDS011;43161;50.950;18.224;2023-05-29T01:26:10;11.10;;;3.60;;
57325;SDS011;43161;50.950;18.224;2023-05-29T01:28:24;10.10;;;3.60;;
57325;SDS011;43161;50.950;18.224;2023-05-29T01:30:51;11.90;;;4.10;;
57325;SDS011;43161;50.950;18.224;2023-05-29T01:33:19;12.00;;;3.70;;
57325;SDS011;43161;50.950;18.224;2023-05-29T01:35:45;12.60;;;3.50;;
57325;SDS011;43161;50.950;18.224;2023-05-29T01:38:11;12.10;;;3.90;;
57325;SDS011;43161;50.950;18.224;2023-05-29T01:40:37;14.30;;;4.10;;
57325;SDS011;43161;50.950;18.224;2023-05-29T01:43:03;12.50;;;3.80;;
57325;SDS011;43161;50.950;18.224;2023-05-29T01:45:29;11.50;;;3.70;;
57325;SDS011;43161;50.950;18.224;2023-05-29T01:47:55;11.80;;;3.60;;
57325;SDS011;43161;50.950;18.224;2023-05-29T01:50:21;12.30;;;4.00;;
57325;SDS011;43161;50.950;18.224;2023-05-29T01:52:48;11.80;;;3.90;;
57325;SDS011;43161;50.950;18.224;2023-05-29T01:55:13;11.40;;;3.60;;
57325;SDS011;43161;50.950;18.224;2023-05-29T01:57:39;10.30;;;3.70;;
57325;SDS011;43161;50.950;18.224;2023-05-29T02:00:06;15.00;;;3.90;;
57325;SDS011;43161;50.950;18.224;2023-05-29T02:02:38;11.60;;;3.60;;
57325;SDS011;43161;50.950;18.224;2023-05-29T02:05:05;13.70;;;3.90;;
57325;SDS011;43161;50.950;18.224;2023-05-29T02:07:32;12.50;;;3.50;;
57325;SDS011;43161;50.950;18.224;2023-05-29T02:09:57;10.20;;;3.50;;
57325;SDS011;43161;50.950;18.224;2023-05-29T02:12:23;12.80;;;4.10;;
57325;SDS011;43161;50.950;18.224;2023-05-29T02:14:49;12.00;;;3.90;;
57325;SDS011;43161;50.950;18.224;2023-05-29T02:17:14;10.20;;;3.90;;
57325;SDS011;43161;50.950;18.224;2023-05-29T02:19:40;11.20;;;3.80;;
57325;SDS011;43161;50.950;18.224;2023-05-29T02:22:07;11.50;;;3.90;;
57325;SDS011;43161;50.950;18.224;2023-05-29T02:24:33;12.60;;;4.10;;
57325;SDS011;43161;50.950;18.224;2023-05-29T02:26:58;12.40;;;3.90;;
57325;SDS011;43161;50.950;18.224;2023-05-29T02:29:24;11.90;;;3.70;;
57325;SDS011;43161;50.950;18.224;2023-05-29T02:31:49;9.90;;;3.70;;
57325;SDS011;43161;50.950;18.224;2023-05-29T02:34:15;13.20;;;4.00;;
57325;SDS011;43161;50.950;18.224;2023-05-29T02:36:40;12.50;;;3.90;;
57325;SDS011;43161;50.950;18.224;2023-05-29T02:39:07;13.00;;;4.10;;
57325;SDS011;43161;50.950;18.224;2023-05-29T02:41:32;10.80;;;4.00;;
57325;SDS011;43161;50.950;18.224;2023-05-29T02:43:58;14.60;;;4.30;;
57325;SDS011;43161;50.950;18.224;2023-05-29T02:46:24;11.40;;;4.10;;
57325;SDS011;43161;50.950;18.224;2023-05-29T02:48:49;9.70;;;3.80;;
57325;SDS011;43161;50.950;18.224;2023-05-29T02:51:15;13.20;;;3.90;;
57325;SDS011;43161;50.950;18.224;2023-05-29T02:53:40;13.50;;;4.20;;
57325;SDS011;43161;50.950;18.224;2023-05-29T02:56:06;14.20;;;4.40;;
57325;SDS011;43161;50.950;18.224;2023-05-29T02:58:33;11.40;;;3.50;;
57325;SDS011;43161;50.950;18.224;2023-05-29T03:01:01;11.20;;;3.90;;
57325;SDS011;43161;50.950;18.224;2023-05-29T03:03:27;11.00;;;4.10;;
57325;SDS011;43161;50.950;18.224;2023-05-29T03:05:53;11.80;;;3.70;;
57325;SDS011;43161;50.950;18.224;2023-05-29T03:08:19;11.10;;;3.90;;
57325;SDS011;43161;50.950;18.224;2023-05-29T03:10:44;13.80;;;3.90;;
57325;SDS011;43161;50.950;18.224;2023-05-29T03:13:10;12.50;;;4.40;;
57325;SDS011;43161;50.950;18.224;2023-05-29T03:15:35;11.90;;;4.50;;
57325;SDS011;43161;50.950;18.224;2023-05-29T03:18:01;11.80;;;4.30;;
57325;SDS011;43161;50.950;18.224;2023-05-29T03:20:26;15.20;;;4.60;;
57325;SDS011;43161;50.950;18.224;2023-05-29T03:22:54;13.20;;;4.20;;
57325;SDS011;43161;50.950;18.224;2023-05-29T03:25:20;15.90;;;4.90;;
57325;SDS011;43161;50.950;18.224;2023-05-29T03:27:46;21.20;;;6.00;;
57325;SDS011;43161;50.950;18.224;2023-05-29T03:30:11;14.90;;;5.00;;
57325;SDS011;43161;50.950;18.224;2023-05-29T03:32:37;15.70;;;4.90;;
57325;SDS011;43161;50.950;18.224;2023-05-29T03:35:03;13.70;;;4.40;;
57325;SDS011;43161;50.950;18.224;2023-05-29T03:37:29;11.40;;;4.00;;
57325;SDS011;43161;50.950;18.224;2023-05-29T03:39:55;11.80;;;4.10;;
57325;SDS011;43161;50.950;18.224;2023-05-29T03:42:20;13.30;;;4.50;;
57325;SDS011;43161;50.950;18.224;2023-05-29T03:44:46;12.40;;;4.80;;
57325;SDS011;43161;50.950;18.224;2023-05-29T03:47:12;14.10;;;4.70;;
57325;SDS011;43161;50.950;18.224;2023-05-29T03:49:37;13.30;;;4.40;;
57325;SDS011;43161;50.950;18.224;2023-05-29T03:52:03;13.40;;;4.40;;
57325;SDS011;43161;50.950;18.224;2023-05-29T03:54:29;11.60;;;4.40;;
57325;SDS011;43161;50.950;18.224;2023-05-29T03:56:55;10.80;;;3.90;;
57325;SDS011;43161;50.950;18.224;2023-05-29T03:59:21;13.20;;;4.00;;
57325;SDS011;43161;50.950;18.224;2023-05-29T04:01:46;10.80;;;4.10;;
57325;SDS011;43161;50.950;18.224;2023-05-29T04:04:12;13.00;;;4.30;;
57325;SDS011;43161;50.950;18.224;2023-05-29T04:06:37;12.10;;;5.00;;
57325;SDS011;43161;50.950;18.224;2023-05-29T04:09:04;13.20;;;3.90;;
57325;SDS011;43161;50.950;18.224;2023-05-29T04:11:34;14.10;;;4.20;;
57325;SDS011;43161;50.950;18.224;2023-05-29T04:14:00;12.20;;;4.30;;
57325;SDS011;43161;50.950;18.224;2023-05-29T04:16:27;12.50;;;3.90;;
57325;SDS011;43161;50.950;18.224;2023-05-29T04:18:53;13.30;;;4.40;;
57325;SDS011;43161;50.950;18.224;2023-05-29T04:21:20;12.90;;;4.30;;
57325;SDS011;43161;50.950;18.224;2023-05-29T04:23:45;10.40;;;3.20;;
57325;SDS011;43161;50.950;18.224;2023-05-29T04:26:11;11.30;;;4.00;;
57325;SDS011;43161;50.950;18.224;2023-05-29T04:28:38;10.10;;;4.30;;
57325;SDS011;43161;50.950;18.224;2023-05-29T04:31:04;14.90;;;4.70;;
57325;SDS011;43161;50.950;18.224;2023-05-29T04:33:31;13.80;;;4.80;;
57325;SDS011;43161;50.950;18.224;2023-05-29T04:35:58;13.30;;;4.60;;
57325;SDS011;43161;50.950;18.224;2023-05-29T04:38:26;14.60;;;5.10;;
57325;SDS011;43161;50.950;18.224;2023-05-29T04:40:53;12.80;;;5.00;;
57325;SDS011;43161;50.950;18.224;2023-05-29T04:43:22;14.70;;;5.40;;
57325;SDS011;43161;50.950;18.224;2023-05-29T04:45:52;15.60;;;5.20;;
57325;SDS011;43161;50.950;18.224;2023-05-29T04:48:18;12.70;;;4.50;;
57325;SDS011;43161;50.950;18.224;2023-05-29T04:50:44;14.60;;;4.60;;
57325;SDS011;43161;50.950;18.224;2023-05-29T04:53:10;13.10;;;4.80;;
57325;SDS011;43161;50.950;18.224;2023-05-29T04:55:36;11.20;;;4.20;;
57325;SDS011;43161;50.950;18.224;2023-05-29T04:58:01;10.50;;;4.20;;
57325;SDS011;43161;50.950;18.224;2023-05-29T05:00:27;13.00;;;4.60;;
57325;SDS011;43161;50.950;18.224;2023-05-29T05:02:53;11.30;;;4.30;;
57325;SDS011;43161;50.950;18.224;2023-05-29T05:05:19;10.80;;;4.10;;
57325;SDS011;43161;50.950;18.224;2023-05-29T05:07:45;12.70;;;4.30;;
57325;SDS011;43161;50.950;18.224;2023-05-29T05:10:10;12.50;;;4.30;;
57325;SDS011;43161;50.950;18.224;2023-05-29T05:12:37;12.20;;;4.40;;
57325;SDS011;43161;50.950;18.224;2023-05-29T05:15:03;14.10;;;5.10;;
57325;SDS011;43161;50.950;18.224;2023-05-29T05:17:29;16.70;;;6.10;;
57325;SDS011;43161;50.950;18.224;2023-05-29T05:19:55;16.70;;;6.40;;
57325;SDS011;43161;50.950;18.224;2023-05-29T05:22:21;17.70;;;6.30;;
57325;SDS011;43161;50.950;18.224;2023-05-29T05:24:46;15.60;;;5.90;;
57325;SDS011;43161;50.950;18.224;2023-05-29T05:27:12;14.70;;;5.10;;
57325;SDS011;43161;50.950;18.224;2023-05-29T05:29:38;13.00;;;4.20;;
57325;SDS011;43161;50.950;18.224;2023-05-29T05:32:04;15.30;;;4.70;;
57325;SDS011;43161;50.950;18.224;2023-05-29T05:34:30;12.50;;;4.40;;
57325;SDS011;43161;50.950;18.224;2023-05-29T05:36:56;12.40;;;4.30;;
57325;SDS011;43161;50.950;18.224;2023-05-29T05:39:21;13.00;;;4.40;;
57325;SDS011;43161;50.950;18.224;2023-05-29T05:41:47;13.90;;;4.90;;
57325;SDS011;43161;50.950;18.224;2023-05-29T05:44:13;16.60;;;5.80;;
57325;SDS011;43161;50.950;18.224;2023-05-29T05:46:38;12.90;;;4.60;;
57325;SDS011;43161;50.950;18.224;2023-05-29T05:49:04;17.50;;;6.30;;
57325;SDS011;43161;50.950;18.224;2023-05-29T05:51:30;12.90;;;4.40;;
57325;SDS011;43161;50.950;18.224;2023-05-29T05:53:56;15.30;;;4.90;;
57325;SDS011;43161;50.950;18.224;2023-05-29T05:56:21;16.20;;;5.50;;
57325;SDS011;43161;50.950;18.224;2023-05-29T05:58:47;13.50;;;5.20;;
57325;SDS011;43161;50.950;18.224;2023-05-29T06:01:15;13.90;;;4.80;;
57325;SDS011;43161;50.950;18.224;2023-05-29T06:03:40;13.80;;;4.70;;
57325;SDS011;43161;50.950;18.224;2023-05-29T06:06:06;16.30;;;6.10;;
57325;SDS011;43161;50.950;18.224;2023-05-29T06:08:34;13.10;;;5.80;;
57325;SDS011;43161;50.950;18.224;2023-05-29T06:11:00;15.30;;;5.80;;
57325;SDS011;43161;50.950;18.224;2023-05-29T06:13:25;16.40;;;6.20;;
57325;SDS011;43161;50.950;18.224;2023-05-29T06:15:51;13.70;;;5.50;;
57325;SDS011;43161;50.950;18.224;2023-05-29T06:18:17;15.00;;;6.40;;
57325;SDS011;43161;50.950;18.224;2023-05-29T06:20:42;16.00;;;5.30;;
57325;SDS011;43161;50.950;18.224;2023-05-29T06:23:08;32.70;;;5.40;;
57325;SDS011;43161;50.950;18.224;2023-05-29T06:25:33;20.80;;;5.40;;
57325;SDS011;43161;50.950;18.224;2023-05-29T06:27:59;18.10;;;5.00;;
57325;SDS011;43161;50.950;18.224;2023-05-29T06:30:25;17.00;;;5.00;;
57325;SDS011;43161;50.950;18.224;2023-05-29T06:32:51;17.60;;;4.50;;
57325;SDS011;43161;50.950;18.224;2023-05-29T06:35:17;17.90;;;4.40;;
57325;SDS011;43161;50.950;18.224;2023-05-29T06:37:43;14.10;;;4.30;;
57325;SDS011;43161;50.950;18.224;2023-05-29T06:40:11;13.80;;;4.80;;
57325;SDS011;43161;50.950;18.224;2023-05-29T06:42:37;12.20;;;3.80;;
57325;SDS011;43161;50.950;18.224;2023-05-29T06:45:03;11.70;;;4.50;;
57325;SDS011;43161;50.950;18.224;2023-05-29T06:47:29;14.30;;;4.00;;
57325;SDS011;43161;50.950;18.224;2023-05-29T06:49:55;15.80;;;4.60;;
57325;SDS011;43161;50.950;18.224;2023-05-29T06:52:21;13.80;;;4.10;;
57325;SDS011;43161;50.950;18.224;2023-05-29T06:54:46;15.90;;;4.40;;
57325;SDS011;43161;50.950;18.224;2023-05-29T06:57:12;10.80;;;3.80;;
57325;SDS011;43161;50.950;18.224;2023-05-29T06:59:38;13.00;;;3.60;;
57325;SDS011;43161;50.950;18.224;2023-05-29T07:02:04;10.40;;;3.70;;
57325;SDS011;43161;50.950;18.224;2023-05-29T07:04:32;10.60;;;3.30;;
57325;SDS011;43161;50.950;18.224;2023-05-29T07:06:57;12.10;;;3.60;;
57325;SDS011;43161;50.950;18.224;2023-05-29T07:09:23;11.60;;;3.30;;
57325;SDS011;43161;50.950;18.224;2023-05-29T07:11:50;11.70;;;3.30;;
57325;SDS011;43161;50.950;18.224;2023-05-29T07:14:16;10.60;;;3.00;;
57325;SDS011;43161;50.950;18.224;2023-05-29T07:16:42;11.80;;;3.10;;
57325;SDS011;43161;50.950;18.224;2023-05-29T07:19:07;11.80;;;3.10;;
57325;SDS011;43161;50.950;18.224;2023-05-29T07:21:33;14.30;;;3.00;;
57325;SDS011;43161;50.950;18.224;2023-05-29T07:23:59;13.70;;;2.70;;
57325;SDS011;43161;50.950;18.224;2023-05-29T07:26:25;11.70;;;2.70;;
57325;SDS011;43161;50.950;18.224;2023-05-29T07:28:51;10.60;;;2.60;;
57325;SDS011;43161;50.950;18.224;2023-05-29T07:31:17;10.60;;;2.20;;
57325;SDS011;43161;50.950;18.224;2023-05-29T07:33:43;8.80;;;2.10;;
57325;SDS011;43161;50.950;18.224;2023-05-29T07:36:09;11.10;;;2.90;;
57325;SDS011;43161;50.950;18.224;2023-05-29T07:38:36;12.10;;;2.30;;
57325;SDS011;43161;50.950;18.224;2023-05-29T07:41:01;8.00;;;2.30;;
57325;SDS011;43161;50.950;18.224;2023-05-29T07:43:27;9.60;;;2.30;;
57325;SDS011;43161;50.950;18.224;2023-05-29T07:45:53;9.20;;;2.10;;
57325;SDS011;43161;50.950;18.224;2023-05-29T07:48:18;11.90;;;2.10;;
57325;SDS011;43161;50.950;18.224;2023-05-29T07:50:44;7.90;;;2.00;;
57325;SDS011;43161;50.950;18.224;2023-05-29T07:53:10;8.60;;;2.30;;
57325;SDS011;43161;50.950;18.224;2023-05-29T07:55:35;9.10;;;2.30;;
57325;SDS011;43161;50.950;18.224;2023-05-29T07:58:01;9.10;;;2.10;;
57325;SDS011;43161;50.950;18.224;2023-05-29T08:00:27;9.60;;;2.00;;
57325;SDS011;43161;50.950;18.224;2023-05-29T08:02:53;8.30;;;1.80;;
57325;SDS011;43161;50.950;18.224;2023-05-29T08:05:20;8.90;;;1.90;;
57325;SDS011;43161;50.950;18.224;2023-05-29T08:07:46;8.10;;;1.90;;
57325;SDS011;43161;50.950;18.224;2023-05-29T08:10:13;11.60;;;2.50;;
57325;SDS011;43161;50.950;18.224;2023-05-29T08:12:39;7.70;;;2.10;;
57325;SDS011;43161;50.950;18.224;2023-05-29T08:15:05;7.40;;;1.70;;
57325;SDS011;43161;50.950;18.224;2023-05-29T08:17:31;10.10;;;2.00;;
57325;SDS011;43161;50.950;18.224;2023-05-29T08:19:57;9.10;;;1.90;;
57325;SDS011;43161;50.950;18.224;2023-05-29T08:22:27;6.50;;;1.60;;
57325;SDS011;43161;50.950;18.224;2023-05-29T08:24:53;9.40;;;2.00;;
57325;SDS011;43161;50.950;18.224;2023-05-29T08:27:19;7.60;;;1.90;;
57325;SDS011;43161;50.950;18.224;2023-05-29T08:29:44;6.90;;;1.90;;
57325;SDS011;43161;50.950;18.224;2023-05-29T08:32:10;8.60;;;1.80;;
57325;SDS011;43161;50.950;18.224;2023-05-29T08:34:36;9.80;;;2.10;;
57325;SDS011;43161;50.950;18.224;2023-05-29T08:37:02;9.70;;;2.00;;
57325;SDS011;43161;50.950;18.224;2023-05-29T08:39:28;8.00;;;1.90;;
57325;SDS011;43161;50.950;18.224;2023-05-29T08:44:32;8.90;;;2.00;;
57325;SDS011;43161;50.950;18.224;2023-05-29T08:47:01;9.30;;;1.70;;
57325;SDS011;43161;50.950;18.224;2023-05-29T08:49:29;6.80;;;1.60;;
57325;SDS011;43161;50.950;18.224;2023-05-29T08:52:04;7.10;;;1.70;;
57325;SDS011;43161;50.950;18.224;2023-05-29T08:54:37;6.60;;;1.50;;
57325;SDS011;43161;50.950;18.224;2023-05-29T08:57:03;6.40;;;1.70;;
57325;SDS011;43161;50.950;18.224;2023-05-29T08:59:29;7.00;;;1.70;;
57325;SDS011;43161;50.950;18.224;2023-05-29T09:01:56;8.70;;;1.70;;
57325;SDS011;43161;50.950;18.224;2023-05-29T09:04:22;7.60;;;1.70;;
57325;SDS011;43161;50.950;18.224;2023-05-29T09:06:48;6.00;;;1.70;;
57325;SDS011;43161;50.950;18.224;2023-05-29T09:09:18;8.80;;;1.40;;
57325;SDS011;43161;50.950;18.224;2023-05-29T09:11:44;9.50;;;1.80;;
57325;SDS011;43161;50.950;18.224;2023-05-29T09:17:08;8.80;;;1.60;;
57325;SDS011;43161;50.950;18.224;2023-05-29T09:19:35;8.10;;;2.00;;
57325;SDS011;43161;50.950;18.224;2023-05-29T09:24:29;8.50;;;2.10;;
57325;SDS011;43161;50.950;18.224;2023-05-29T09:26:55;9.10;;;1.90;;
57325;SDS011;43161;50.950;18.224;2023-05-29T09:29:21;7.40;;;1.80;;
57325;SDS011;43161;50.950;18.224;2023-05-29T09:31:47;9.70;;;2.10;;
57325;SDS011;43161;50.950;18.224;2023-05-29T09:34:13;9.00;;;2.10;;
57325;SDS011;43161;50.950;18.224;2023-05-29T09:36:39;10.30;;;1.90;;
57325;SDS011;43161;50.950;18.224;2023-05-29T09:39:06;9.30;;;1.90;;
57325;SDS011;43161;50.950;18.224;2023-05-29T09:41:41;7.10;;;1.80;;
57325;SDS011;43161;50.950;18.224;2023-05-29T09:44:07;7.80;;;1.90;;
57325;SDS011;43161;50.950;18.224;2023-05-29T09:46:36;7.60;;;1.90;;
57325;SDS011;43161;50.950;18.224;2023-05-29T09:49:02;7.70;;;1.70;;
57325;SDS011;43161;50.950;18.224;2023-05-29T09:51:28;9.10;;;1.90;;
57325;SDS011;43161;50.950;18.224;2023-05-29T09:53:55;13.80;;;2.40;;
57325;SDS011;43161;50.950;18.224;2023-05-29T09:56:26;9.00;;;1.80;;
57325;SDS011;43161;50.950;18.224;2023-05-29T09:58:53;7.90;;;1.80;;
57325;SDS011;43161;50.950;18.224;2023-05-29T10:01:19;10.90;;;1.80;;
57325;SDS011;43161;50.950;18.224;2023-05-29T10:03:45;12.60;;;2.20;;
57325;SDS011;43161;50.950;18.224;2023-05-29T10:06:11;6.00;;;1.60;;
57325;SDS011;43161;50.950;18.224;2023-05-29T10:08:43;6.90;;;1.80;;
57325;SDS011;43161;50.950;18.224;2023-05-29T10:13:41;8.90;;;1.60;;
57325;SDS011;43161;50.950;18.224;2023-05-29T10:16:14;7.40;;;1.70;;
57325;SDS011;43161;50.950;18.224;2023-05-29T10:18:43;9.30;;;1.60;;
57325;SDS011;43161;50.950;18.224;2023-05-29T10:21:11;4.90;;;1.40;;
57325;SDS011;43161;50.950;18.224;2023-05-29T10:23:38;8.10;;;1.80;;
57325;SDS011;43161;50.950;18.224;2023-05-29T10:26:06;8.80;;;1.50;;
57325;SDS011;43161;50.950;18.224;2023-05-29T10:29:03;8.10;;;1.70;;
57325;SDS011;43161;50.950;18.224;2023-05-29T10:42:43;6.70;;;1.50;;
57325;SDS011;43161;50.950;18.224;2023-05-29T10:45:11;8.30;;;1.80;;
57325;SDS011;43161;50.950;18.224;2023-05-29T10:50:40;9.70;;;1.50;;
57325;SDS011;43161;50.950;18.224;2023-05-29T10:53:16;6.80;;;1.60;;
57325;SDS011;43161;50.950;18.224;2023-05-29T10:55:44;5.40;;;1.60;;
57325;SDS011;43161;50.950;18.224;2023-05-29T10:58:12;8.90;;;1.80;;
57325;SDS011;43161;50.950;18.224;2023-05-29T11:00:40;7.40;;;1.70;;
57325;SDS011;43161;50.950;18.224;2023-05-29T11:03:14;8.80;;;1.70;;
57325;SDS011;43161;50.950;18.224;2023-05-29T11:08:35;7.30;;;1.80;;
57325;SDS011;43161;50.950;18.224;2023-05-29T11:14:03;14.60;;;1.60;;
57325;SDS011;43161;50.950;18.224;2023-05-29T11:18:56;7.20;;;1.70;;
57325;SDS011;43161;50.950;18.224;2023-05-29T11:24:05;9.30;;;1.70;;
57325;SDS011;43161;50.950;18.224;2023-05-29T11:26:31;8.30;;;1.70;;
57325;SDS011;43161;50.950;18.224;2023-05-29T11:28:59;6.90;;;1.50;;
57325;SDS011;43161;50.950;18.224;2023-05-29T11:31:26;9.10;;;1.70;;
57325;SDS011;43161;50.950;18.224;2023-05-29T11:33:52;6.80;;;1.60;;
57325;SDS011;43161;50.950;18.224;2023-05-29T11:36:22;9.80;;;1.40;;
57325;SDS011;43161;50.950;18.224;2023-05-29T11:38:47;8.00;;;1.50;;
57325;SDS011;43161;50.950;18.224;2023-05-29T11:41:13;7.80;;;1.70;;
57325;SDS011;43161;50.950;18.224;2023-05-29T11:43:39;9.50;;;1.70;;
57325;SDS011;43161;50.950;18.224;2023-05-29T11:48:48;6.10;;;1.30;;
57325;SDS011;43161;50.950;18.224;2023-05-29T11:51:14;6.20;;;1.40;;
57325;SDS011;43161;50.950;18.224;2023-05-29T11:53:41;8.20;;;1.60;;
57325;SDS011;43161;50.950;18.224;2023-05-29T11:56:08;8.30;;;1.70;;
57325;SDS011;43161;50.950;18.224;2023-05-29T11:58:39;7.90;;;1.50;;
57325;SDS011;43161;50.950;18.224;2023-05-29T12:01:08;6.50;;;1.50;;
57325;SDS011;43161;50.950;18.224;2023-05-29T12:03:41;9.20;;;1.90;;
57325;SDS011;43161;50.950;18.224;2023-05-29T12:06:10;6.40;;;1.70;;
57325;SDS011;43161;50.950;18.224;2023-05-29T12:08:36;10.50;;;1.90;;
57325;SDS011;43161;50.950;18.224;2023-05-29T12:11:03;7.20;;;1.70;;
57325;SDS011;43161;50.950;18.224;2023-05-29T12:13:29;8.30;;;1.60;;
57325;SDS011;43161;50.950;18.224;2023-05-29T12:15:56;6.60;;;1.60;;
57325;SDS011;43161;50.950;18.224;2023-05-29T12:18:28;8.50;;;1.50;;
57325;SDS011;43161;50.950;18.224;2023-05-29T12:21:01;17.70;;;1.80;;
57325;SDS011;43161;50.950;18.224;2023-05-29T12:23:28;9.20;;;1.60;;
57325;SDS011;43161;50.950;18.224;2023-05-29T12:25:55;9.90;;;1.50;;
57325;SDS011;43161;50.950;18.224;2023-05-29T12:28:21;7.70;;;1.40;;
57325;SDS011;43161;50.950;18.224;2023-05-29T12:30:47;8.30;;;1.90;;
57325;SDS011;43161;50.950;18.224;2023-05-29T12:43:53;8.70;;;1.80;;
57325;SDS011;43161;50.950;18.224;2023-05-29T12:46:26;7.40;;;1.70;;
57325;SDS011;43161;50.950;18.224;2023-05-29T12:48:52;6.40;;;1.60;;
57325;SDS011;43161;50.950;18.224;2023-05-29T12:51:22;9.60;;;1.60;;
57325;SDS011;43161;50.950;18.224;2023-05-29T12:53:49;7.90;;;1.70;;
57325;SDS011;43161;50.950;18.224;2023-05-29T12:56:16;7.70;;;1.90;;
57325;SDS011;43161;50.950;18.224;2023-05-29T12:58:41;6.30;;;1.60;;
57325;SDS011;43161;50.950;18.224;2023-05-29T13:01:12;9.60;;;2.00;;
57325;SDS011;43161;50.950;18.224;2023-05-29T13:03:39;6.70;;;1.70;;
57325;SDS011;43161;50.950;18.224;2023-05-29T13:06:04;9.30;;;1.80;;
57325;SDS011;43161;50.950;18.224;2023-05-29T13:08:30;9.50;;;1.60;;
57325;SDS011;43161;50.950;18.224;2023-05-29T13:10:56;10.00;;;2.00;;
57325;SDS011;43161;50.950;18.224;2023-05-29T13:13:22;8.10;;;2.00;;
57325;SDS011;43161;50.950;18.224;2023-05-29T13:15:48;9.20;;;2.20;;
57325;SDS011;43161;50.950;18.224;2023-05-29T13:18:13;10.30;;;2.00;;
57325;SDS011;43161;50.950;18.224;2023-05-29T13:20:39;7.10;;;1.70;;
57325;SDS011;43161;50.950;18.224;2023-05-29T13:23:05;8.20;;;1.90;;
57325;SDS011;43161;50.950;18.224;2023-05-29T13:25:30;7.10;;;1.70;;
57325;SDS011;43161;50.950;18.224;2023-05-29T13:27:56;6.40;;;1.70;;
57325;SDS011;43161;50.950;18.224;2023-05-29T13:30:22;8.80;;;1.80;;
57325;SDS011;43161;50.950;18.224;2023-05-29T13:32:48;9.70;;;2.00;;
57325;SDS011;43161;50.950;18.224;2023-05-29T13:35:13;7.20;;;1.80;;
57325;SDS011;43161;50.950;18.224;2023-05-29T13:37:39;7.50;;;2.00;;
57325;SDS011;43161;50.950;18.224;2023-05-29T13:40:05;10.10;;;1.90;;
57325;SDS011;43161;50.950;18.224;2023-05-29T13:42:34;7.80;;;2.00;;
57325;SDS011;43161;50.950;18.224;2023-05-29T13:45:00;7.20;;;1.60;;
57325;SDS011;43161;50.950;18.224;2023-05-29T13:47:25;8.40;;;2.10;;
57325;SDS011;43161;50.950;18.224;2023-05-29T13:49:57;8.40;;;1.80;;
57325;SDS011;43161;50.950;18.224;2023-05-29T13:52:22;8.10;;;1.70;;
57325;SDS011;43161;50.950;18.224;2023-05-29T13:54:48;10.10;;;1.90;;
57325;SDS011;43161;50.950;18.224;2023-05-29T13:57:14;10.80;;;1.90;;
57325;SDS011;43161;50.950;18.224;2023-05-29T13:59:40;7.00;;;1.80;;
57325;SDS011;43161;50.950;18.224;2023-05-29T14:02:05;7.60;;;1.70;;
57325;SDS011;43161;50.950;18.224;2023-05-29T14:04:33;8.30;;;1.90;;
57325;SDS011;43161;50.950;18.224;2023-05-29T14:06:59;5.60;;;1.70;;
57325;SDS011;43161;50.950;18.224;2023-05-29T14:09:24;8.00;;;1.90;;
57325;SDS011;43161;50.950;18.224;2023-05-29T14:11:54;6.90;;;1.80;;
57325;SDS011;43161;50.950;18.224;2023-05-29T14:14:21;7.80;;;1.90;;
57325;SDS011;43161;50.950;18.224;2023-05-29T14:16:47;9.00;;;2.20;;
57325;SDS011;43161;50.950;18.224;2023-05-29T14:19:13;10.40;;;1.90;;
57325;SDS011;43161;50.950;18.224;2023-05-29T14:21:39;6.50;;;1.80;;
57325;SDS011;43161;50.950;18.224;2023-05-29T14:24:05;8.00;;;1.70;;
57325;SDS011;43161;50.950;18.224;2023-05-29T14:26:32;5.70;;;1.70;;
57325;SDS011;43161;50.950;18.224;2023-05-29T14:28:58;7.80;;;1.70;;
57325;SDS011;43161;50.950;18.224;2023-05-29T14:31:24;7.90;;;2.00;;
57325;SDS011;43161;50.950;18.224;2023-05-29T14:33:50;9.40;;;1.90;;
57325;SDS011;43161;50.950;18.224;2023-05-29T14:36:16;10.00;;;2.00;;
57325;SDS011;43161;50.950;18.224;2023-05-29T14:38:41;7.30;;;1.80;;
57325;SDS011;43161;50.950;18.224;2023-05-29T14:41:09;7.60;;;1.80;;
57325;SDS011;43161;50.950;18.224;2023-05-29T14:43:34;8.30;;;1.80;;
57325;SDS011;43161;50.950;18.224;2023-05-29T14:46:00;7.30;;;2.00;;
57325;SDS011;43161;50.950;18.224;2023-05-29T14:48:26;7.10;;;1.70;;
57325;SDS011;43161;50.950;18.224;2023-05-29T14:50:51;9.50;;;2.10;;
57325;SDS011;43161;50.950;18.224;2023-05-29T14:53:17;7.60;;;1.90;;
57325;SDS011;43161;50.950;18.224;2023-05-29T14:55:43;7.50;;;2.00;;
57325;SDS011;43161;50.950;18.224;2023-05-29T14:58:09;8.20;;;1.80;;
57325;SDS011;43161;50.950;18.224;2023-05-29T15:00:35;12.40;;;2.60;;
57325;SDS011;43161;50.950;18.224;2023-05-29T15:03:00;7.50;;;2.30;;
57325;SDS011;43161;50.950;18.224;2023-05-29T15:05:28;8.30;;;1.90;;
57325;SDS011;43161;50.950;18.224;2023-05-29T15:07:54;6.30;;;1.70;;
57325;SDS011;43161;50.950;18.224;2023-05-29T15:10:24;7.40;;;1.80;;
57325;SDS011;43161;50.950;18.224;2023-05-29T15:12:53;6.10;;;1.60;;
57325;SDS011;43161;50.950;18.224;2023-05-29T15:15:25;8.50;;;2.00;;
57325;SDS011;43161;50.950;18.224;2023-05-29T15:17:52;6.50;;;1.80;;
57325;SDS011;43161;50.950;18.224;2023-05-29T15:20:21;7.00;;;1.60;;
57325;SDS011;43161;50.950;18.224;2023-05-29T15:22:48;6.60;;;1.90;;
57325;SDS011;43161;50.950;18.224;2023-05-29T15:25:14;8.00;;;1.90;;
57325;SDS011;43161;50.950;18.224;2023-05-29T15:27:41;8.60;;;2.00;;